| time (UTC) | temp C | wind direction | speed KPH | gust KPH | rain 1hr cm | rain 24hr cm | rain mn cm | humidity % | barometer mb |
| 20260506004516 | 13 | 0 | 9.7 | 24.1 | 0.00 | 0.00 | 0.00 | 40 | 1006.9 |
| 20260506003015 | 13 | 0 | 8.0 | 24.1 | 0.00 | 0.00 | 0.00 | 40 | 1005.9 |
| 20260506001535 | 13 | 0 | 12.9 | 27.4 | 0.00 | 0.00 | 0.00 | 39 | 1005.8 |
| 20260506000035 | 15 | 0 | 9.7 | 24.1 | 0.00 | 0.00 | 0.00 | 38 | 1006.2 |
| 20260505234515 | 15 | 0 | 11.3 | 25.7 | 0.00 | 0.00 | 0.00 | 41 | 1006.3 |
| 20260505233017 | 15 | 0 | 11.3 | 27.4 | 0.00 | 0.00 | 0.00 | 41 | 1006.6 |
| 20260505231517 | 15 | 0 | 14.5 | 29.0 | 0.00 | 0.00 | 0.00 | 41 | 1006.9 |
| 20260505230017 | 15 | 0 | 11.3 | 25.7 | 0.00 | 0.00 | 0.00 | 39 | 1006.2 |
| 20260505224517 | 15 | 0 | 8.0 | 22.5 | 0.00 | 0.00 | 0.00 | 38 | 1006.8 |
| 20260505223017 | 15 | 0 | 9.7 | 25.7 | 0.00 | 0.00 | 0.00 | 44 | 1006.5 |
| 20260505221517 | 14 | 0 | 9.7 | 29.0 | 0.00 | 0.00 | 0.00 | 44 | 1007.0 |
| 20260505220037 | 16 | 0 | 8.0 | 30.6 | 0.00 | 0.00 | 0.00 | 37 | 1007.5 |
| 20260505214517 | 15 | 0 | 8.0 | 25.7 | 0.00 | 0.00 | 0.00 | 42 | 1007.4 |
| 20260505213017 | 15 | 0 | 9.7 | 20.9 | 0.00 | 0.00 | 0.00 | 44 | 1007.0 |
| 20260505211517 | 13 | 23 | 14.5 | 27.4 | 0.00 | 0.00 | 0.00 | 47 | 1007.0 |
| 20260505210017 | 13 | 23 | 9.7 | 22.5 | 0.00 | 0.00 | 0.00 | 49 | 1007.3 |
| 20260505204517 | 12 | 0 | 8.0 | 19.3 | 0.00 | 0.00 | 0.00 | 51 | 1007.6 |
| 20260505203017 | 12 | 0 | 12.9 | 24.1 | 0.00 | 0.00 | 0.00 | 54 | 1008.1 |
| 20260505201517 | 11 | 0 | 12.9 | 35.4 | 0.00 | 0.00 | 0.00 | 56 | 1008.5 |
| 20260505200016 | 12 | 0 | 8.0 | 20.9 | 0.00 | 0.00 | 0.00 | 53 | 1008.0 |
| 20260505194516 | 12 | 0 | 3.2 | 16.1 | 0.00 | 0.00 | 0.00 | 50 | 1008.1 |
| 20260505193036 | 13 | 0 | 8.0 | 20.9 | 0.00 | 0.00 | 0.00 | 48 | 1008.5 |
| 20260505191536 | 16 | 0 | 6.4 | 17.7 | 0.00 | 0.00 | 0.00 | 43 | 1008.5 |
| 20260505190016 | 15 | 0 | 9.7 | 24.1 | 0.00 | 0.00 | 0.00 | 48 | 1008.1 |
| 20260505184517 | 15 | 0 | 11.3 | 24.1 | 0.00 | 0.00 | 0.00 | 43 | 1008.0 |
| 20260505183017 | 15 | 0 | 4.8 | 17.7 | 0.00 | 0.00 | 0.00 | 44 | 1008.3 |
| 20260505181516 | 13 | 0 | 1.6 | 12.9 | 0.00 | 0.00 | 0.00 | 46 | 1008.1 |
| 20260505180016 | 13 | 0 | 1.6 | 9.7 | 0.00 | 0.00 | 0.00 | 45 | 1008.2 |
| 20260505174516 | 13 | 0 | 3.2 | 12.9 | 0.00 | 0.00 | 0.00 | 45 | 1008.2 |
| 20260505173017 | 13 | 0 | 3.2 | 14.5 | 0.00 | 0.00 | 0.00 | 43 | 1009.0 |
| 20260505171516 | 13 | 0 | 4.8 | 11.3 | 0.00 | 0.00 | 0.00 | 44 | 1009.3 |
| 20260505170016 | 12 | 0 | 3.2 | 16.1 | 0.00 | 0.00 | 0.00 | 48 | 1008.7 |
| 20260505164516 | 11 | 0 | 4.8 | 11.3 | 0.00 | 0.00 | 0.00 | 48 | 1008.8 |
| 20260505163016 | 10 | 0 | 6.4 | 14.5 | 0.00 | 0.00 | 0.00 | 52 | 1009.5 |
| 20260505161516 | 10 | 0 | 8.0 | 22.5 | 0.00 | 0.00 | 0.00 | 54 | 1009.4 |
| 20260505153036 | 10 | 0 | 14.5 | 32.2 | 0.00 | 0.00 | 0.00 | 56 | 1010.2 |
| 20260505151516 | 10 | 0 | 12.9 | 24.1 | 0.00 | 0.00 | 0.00 | 55 | 1009.7 |
| 20260505124515 | 11 | 0 | 8.0 | 17.7 | 0.00 | 0.00 | 0.00 | 39 | 1009.4 |
| 20260505123015 | 11 | 0 | 4.8 | 14.5 | 0.00 | 0.00 | 0.00 | 40 | 1009.8 |
| 20260505121516 | 10 | 0 | 3.2 | 6.4 | 0.00 | 0.00 | 0.00 | 39 | 1009.4 |
| 20260505120015 | 10 | 0 | 3.2 | 9.7 | 0.00 | 0.00 | 0.00 | 38 | 1008.9 |
| 20260505114556 | 11 | 0 | 1.6 | 6.4 | 0.00 | 0.00 | 0.00 | 37 | 1008.8 |
| 20260505113015 | 11 | 0 | 3.2 | 9.7 | 0.00 | 0.00 | 0.00 | 36 | 1008.8 |
| 20260505111515 | 11 | 0 | 3.2 | 9.7 | 0.00 | 0.00 | 0.00 | 36 | 1009.2 |
| 20260505101516 | 12 | 0 | 8.0 | 17.7 | 0.00 | 0.00 | 0.00 | 34 | 1008.7 |
| 20260505100015 | 11 | 0 | 6.4 | 16.1 | 0.00 | 0.00 | 0.00 | 34 | 1008.7 |
| 20260505094517 | 12 | 0 | 6.4 | 19.3 | 0.00 | 0.00 | 0.00 | 32 | 1008.2 |
| 20260505093017 | 12 | 0 | 6.4 | 19.3 | 0.00 | 0.00 | 0.00 | 29 | 1008.4 |
| 20260505091537 | 12 | 0 | 6.4 | 16.1 | 0.00 | 0.00 | 0.00 | 32 | 1008.7 |
| 20260505090017 | 12 | 0 | 6.4 | 16.1 | 0.00 | 0.00 | 0.00 | 32 | 1008.9 |
| 20260505084517 | 13 | 0 | 9.7 | 25.7 | 0.00 | 0.00 | 0.00 | 31 | 1008.7 |
| 20260505083017 | 13 | 0 | 8.0 | 22.5 | 0.00 | 0.00 | 0.00 | 30 | 1008.8 |
| 20260505081517 | 13 | 0 | 4.8 | 19.3 | 0.00 | 0.00 | 0.00 | 29 | 1008.8 |
| 20260505080017 | 13 | 0 | 9.7 | 24.1 | 0.00 | 0.00 | 0.00 | 29 | 1008.9 |
| 20260505074517 | 13 | 0 | 6.4 | 25.7 | 0.00 | 0.00 | 0.00 | 28 | 1008.7 |
| 20260505073017 | 14 | 0 | 8.0 | 32.2 | 0.00 | 0.00 | 0.00 | 28 | 1008.9 |
| 20260505071517 | 14 | 0 | 3.2 | 22.5 | 0.00 | 0.00 | 0.00 | 28 | 1009.0 |
| 20260505070017 | 15 | 0 | 8.0 | 22.5 | 0.00 | 0.00 | 0.00 | 27 | 1009.3 |
| 20260505064517 | 15 | 0 | 3.2 | 22.5 | 0.00 | 0.00 | 0.00 | 25 | 1009.2 |
| 20260505063057 | 15 | 0 | 6.4 | 29.0 | 0.00 | 0.00 | 0.00 | 25 | 1008.8 |
| 20260505061517 | 15 | 0 | 9.7 | 29.0 | 0.00 | 0.00 | 0.00 | 25 | 1009.1 |
| 20260505060017 | 15 | 0 | 9.7 | 24.1 | 0.00 | 0.00 | 0.00 | 24 | 1008.5 |
| 20260505054517 | 16 | 0 | 11.3 | 25.7 | 0.00 | 0.00 | 0.00 | 24 | 1008.8 |
| 20260505053017 | 16 | 0 | 11.3 | 24.1 | 0.00 | 0.00 | 0.00 | 23 | 1008.4 |
| 20260505051517 | 16 | 0 | 9.7 | 22.5 | 0.00 | 0.00 | 0.00 | 23 | 1008.3 |
| 20260505041517 | 17 | 0 | 14.5 | 27.4 | 0.00 | 0.00 | 0.00 | 23 | 1008.6 |
| 20260505040017 | 17 | 0 | 16.1 | 30.6 | 0.00 | 0.00 | 0.00 | 23 | 1008.0 |
| 20260505034517 | 17 | 0 | 14.5 | 29.0 | 0.00 | 0.00 | 0.00 | 23 | 1007.8 |
| 20260505033017 | 17 | 0 | 19.3 | 35.4 | 0.00 | 0.00 | 0.00 | 22 | 1007.6 |
| 20260505031517 | 17 | 0 | 16.1 | 30.6 | 0.00 | 0.00 | 0.00 | 22 | 1007.4 |
| 20260505030016 | 17 | 0 | 17.7 | 33.8 | 0.00 | 0.00 | 0.00 | 21 | 1008.2 |
| 20260505024517 | 17 | 0 | 12.9 | 27.4 | 0.00 | 0.00 | 0.00 | 21 | 1008.2 |
| 20260505023017 | 18 | 0 | 11.3 | 24.1 | 0.00 | 0.00 | 0.00 | 22 | 1007.7 |
| 20260505021516 | 18 | 0 | 8.0 | 20.9 | 0.00 | 0.00 | 0.00 | 21 | 1008.1 |
| 20260505020017 | 18 | 0 | 14.5 | 29.0 | 0.00 | 0.00 | 0.00 | 20 | 1007.6 |
| 20260505014516 | 18 | 0 | 9.7 | 24.1 | 0.00 | 0.00 | 0.00 | 19 | 1007.7 |
| 20260505013017 | 18 | 0 | 9.7 | 24.1 | 0.00 | 0.00 | 0.00 | 18 | 1006.3 |
| 20260505011517 | 18 | 0 | 8.0 | 22.5 | 0.00 | 0.00 | 0.00 | 17 | 1006.2 |
| 20260505010017 | 19 | 0 | 11.3 | 27.4 | 0.00 | 0.00 | 0.00 | 16 | 1007.5 |